sensor_id;sensor_type;location;lat;lon;timestamp;temperature;humidity
28530;DHT22;15737;49.760;6.632;2023-03-20T00:01:38;9.40;99.90
28530;DHT22;15737;49.760;6.632;2023-03-20T00:04:03;9.40;99.90
28530;DHT22;15737;49.760;6.632;2023-03-20T00:06:29;9.30;99.90
28530;DHT22;15737;49.760;6.632;2023-03-20T00:08:55;9.30;99.90
28530;DHT22;15737;49.760;6.632;2023-03-20T00:13:47;9.20;99.90
28530;DHT22;15737;49.760;6.632;2023-03-20T00:16:12;9.30;99.90
28530;DHT22;15737;49.760;6.632;2023-03-20T00:18:38;9.30;99.90
28530;DHT22;15737;49.760;6.632;2023-03-20T00:21:11;9.40;99.90
28530;DHT22;15737;49.760;6.632;2023-03-20T00:23:40;9.50;99.90
28530;DHT22;15737;49.760;6.632;2023-03-20T00:26:11;9.50;99.90
28530;DHT22;15737;49.760;6.632;2023-03-20T00:28:42;9.40;99.90
28530;DHT22;15737;49.760;6.632;2023-03-20T00:31:35;9.40;99.90
28530;DHT22;15737;49.760;6.632;2023-03-20T00:34:04;9.30;99.90
28530;DHT22;15737;49.760;6.632;2023-03-20T00:36:31;9.30;99.90
28530;DHT22;15737;49.760;6.632;2023-03-20T00:38:57;9.20;99.90
28530;DHT22;15737;49.760;6.632;2023-03-20T00:46:49;9.20;99.90
28530;DHT22;15737;49.760;6.632;2023-03-20T00:49:15;9.20;99.90
28530;DHT22;15737;49.760;6.632;2023-03-20T00:51:40;9.10;99.90
28530;DHT22;15737;49.760;6.632;2023-03-20T00:54:14;9.10;99.90
28530;DHT22;15737;49.760;6.632;2023-03-20T00:56:46;9.20;99.90
28530;DHT22;15737;49.760;6.632;2023-03-20T00:59:20;9.20;99.90
28530;DHT22;15737;49.760;6.632;2023-03-20T01:01:47;9.20;99.90
28530;DHT22;15737;49.760;6.632;2023-03-20T01:04:15;9.30;99.90
28530;DHT22;15737;49.760;6.632;2023-03-20T01:06:42;9.30;99.90
28530;DHT22;15737;49.760;6.632;2023-03-20T01:09:08;9.30;99.90
28530;DHT22;15737;49.760;6.632;2023-03-20T01:11:33;9.30;99.90
28530;DHT22;15737;49.760;6.632;2023-03-20T01:14:00;9.30;99.90
28530;DHT22;15737;49.760;6.632;2023-03-20T01:16:26;9.40;99.90
28530;DHT22;15737;49.760;6.632;2023-03-20T01:18:52;9.40;99.90
28530;DHT22;15737;49.760;6.632;2023-03-20T01:21:19;9.50;99.90
28530;DHT22;15737;49.760;6.632;2023-03-20T01:23:46;9.50;99.90
28530;DHT22;15737;49.760;6.632;2023-03-20T01:26:33;9.50;99.90
28530;DHT22;15737;49.760;6.632;2023-03-20T01:28:59;9.50;99.90
28530;DHT22;15737;49.760;6.632;2023-03-20T01:31:24;9.60;99.90
28530;DHT22;15737;49.760;6.632;2023-03-20T01:33:50;9.60;99.90
28530;DHT22;15737;49.760;6.632;2023-03-20T01:36:20;9.60;99.90
28530;DHT22;15737;49.760;6.632;2023-03-20T01:38:53;9.60;99.90
28530;DHT22;15737;49.760;6.632;2023-03-20T01:41:20;9.60;99.90
28530;DHT22;15737;49.760;6.632;2023-03-20T01:43:47;9.60;99.90
28530;DHT22;15737;49.760;6.632;2023-03-20T01:46:33;9.50;99.90
28530;DHT22;15737;49.760;6.632;2023-03-20T01:49:08;9.50;99.90
28530;DHT22;15737;49.760;6.632;2023-03-20T01:51:53;9.50;99.90
28530;DHT22;15737;49.760;6.632;2023-03-20T01:54:24;9.50;99.90
28530;DHT22;15737;49.760;6.632;2023-03-20T01:56:58;9.60;99.90
28530;DHT22;15737;49.760;6.632;2023-03-20T02:02:05;9.50;99.90
28530;DHT22;15737;49.760;6.632;2023-03-20T02:04:41;9.50;99.90
28530;DHT22;15737;49.760;6.632;2023-03-20T02:07:09;9.50;99.90
28530;DHT22;15737;49.760;6.632;2023-03-20T02:09:36;9.50;99.90
28530;DHT22;15737;49.760;6.632;2023-03-20T02:12:02;9.50;99.90
28530;DHT22;15737;49.760;6.632;2023-03-20T02:14:29;9.60;99.90
28530;DHT22;15737;49.760;6.632;2023-03-20T02:16:56;9.50;99.90
28530;DHT22;15737;49.760;6.632;2023-03-20T02:30:34;9.50;99.90
28530;DHT22;15737;49.760;6.632;2023-03-20T02:33:42;9.60;99.90
28530;DHT22;15737;49.760;6.632;2023-03-20T02:44:49;9.50;99.90
28530;DHT22;15737;49.760;6.632;2023-03-20T02:47:19;9.40;99.90
28530;DHT22;15737;49.760;6.632;2023-03-20T02:50:13;9.50;99.90
28530;DHT22;15737;49.760;6.632;2023-03-20T03:00:49;9.40;99.90
28530;DHT22;15737;49.760;6.632;2023-03-20T03:05:54;9.40;99.90
28530;DHT22;15737;49.760;6.632;2023-03-20T03:08:24;9.40;99.90
28530;DHT22;15737;49.760;6.632;2023-03-20T03:11:14;9.40;99.90
28530;DHT22;15737;49.760;6.632;2023-03-20T03:13:49;9.40;99.90
28530;DHT22;15737;49.760;6.632;2023-03-20T03:16:20;9.40;99.90
28530;DHT22;15737;49.760;6.632;2023-03-20T03:18:49;9.40;99.90
28530;DHT22;15737;49.760;6.632;2023-03-20T03:21:16;9.40;99.90
28530;DHT22;15737;49.760;6.632;2023-03-20T03:23:46;9.40;99.90
28530;DHT22;15737;49.760;6.632;2023-03-20T03:26:17;9.40;99.90
28530;DHT22;15737;49.760;6.632;2023-03-20T03:28:47;9.40;99.90
28530;DHT22;15737;49.760;6.632;2023-03-20T03:31:15;9.40;99.90
28530;DHT22;15737;49.760;6.632;2023-03-20T03:33:44;9.30;99.90
28530;DHT22;15737;49.760;6.632;2023-03-20T03:36:38;9.30;99.90
28530;DHT22;15737;49.760;6.632;2023-03-20T03:42:01;9.30;99.90
28530;DHT22;15737;49.760;6.632;2023-03-20T03:44:42;9.30;99.90
28530;DHT22;15737;49.760;6.632;2023-03-20T03:49:47;9.30;99.90
28530;DHT22;15737;49.760;6.632;2023-03-20T03:52:17;9.30;99.90
28530;DHT22;15737;49.760;6.632;2023-03-20T03:54:50;9.30;99.90
28530;DHT22;15737;49.760;6.632;2023-03-20T03:57:21;9.30;99.90
28530;DHT22;15737;49.760;6.632;2023-03-20T03:59:49;9.30;99.90
28530;DHT22;15737;49.760;6.632;2023-03-20T04:02:18;9.20;99.90
28530;DHT22;15737;49.760;6.632;2023-03-20T04:04:48;9.20;99.90
28530;DHT22;15737;49.760;6.632;2023-03-20T04:07:15;9.20;99.90
28530;DHT22;15737;49.760;6.632;2023-03-20T04:09:43;9.20;99.90
28530;DHT22;15737;49.760;6.632;2023-03-20T04:12:38;9.30;99.90
28530;DHT22;15737;49.760;6.632;2023-03-20T04:15:04;9.10;99.90
28530;DHT22;15737;49.760;6.632;2023-03-20T04:17:30;9.10;99.90
28530;DHT22;15737;49.760;6.632;2023-03-20T04:19:56;9.10;99.90
28530;DHT22;15737;49.760;6.632;2023-03-20T04:22:22;9.00;99.90
28530;DHT22;15737;49.760;6.632;2023-03-20T04:24:48;9.00;99.90
28530;DHT22;15737;49.760;6.632;2023-03-20T04:27:14;9.00;99.90
28530;DHT22;15737;49.760;6.632;2023-03-20T04:29:39;9.10;99.90
28530;DHT22;15737;49.760;6.632;2023-03-20T04:32:05;9.10;99.90
28530;DHT22;15737;49.760;6.632;2023-03-20T04:34:31;9.10;99.90
28530;DHT22;15737;49.760;6.632;2023-03-20T04:36:57;9.10;99.90
28530;DHT22;15737;49.760;6.632;2023-03-20T04:39:23;9.00;99.90
28530;DHT22;15737;49.760;6.632;2023-03-20T04:41:48;8.90;99.90
28530;DHT22;15737;49.760;6.632;2023-03-20T04:44:14;8.90;99.90
28530;DHT22;15737;49.760;6.632;2023-03-20T04:46:39;8.80;99.90
28530;DHT22;15737;49.760;6.632;2023-03-20T04:49:05;8.70;99.90
28530;DHT22;15737;49.760;6.632;2023-03-20T04:51:30;8.60;99.90
28530;DHT22;15737;49.760;6.632;2023-03-20T04:53:56;8.60;99.90
28530;DHT22;15737;49.760;6.632;2023-03-20T04:56:21;8.60;99.90
28530;DHT22;15737;49.760;6.632;2023-03-20T04:58:47;8.50;99.90
28530;DHT22;15737;49.760;6.632;2023-03-20T05:01:12;8.50;99.90
28530;DHT22;15737;49.760;6.632;2023-03-20T05:03:38;8.50;99.90
28530;DHT22;15737;49.760;6.632;2023-03-20T05:06:04;8.40;99.90
28530;DHT22;15737;49.760;6.632;2023-03-20T05:08:29;8.40;99.90
28530;DHT22;15737;49.760;6.632;2023-03-20T05:10:55;8.40;99.90
28530;DHT22;15737;49.760;6.632;2023-03-20T05:13:21;8.40;99.90
28530;DHT22;15737;49.760;6.632;2023-03-20T05:15:46;8.30;99.90
28530;DHT22;15737;49.760;6.632;2023-03-20T05:18:12;8.30;99.90
28530;DHT22;15737;49.760;6.632;2023-03-20T05:20:38;8.20;99.90
28530;DHT22;15737;49.760;6.632;2023-03-20T05:23:04;8.10;99.90
28530;DHT22;15737;49.760;6.632;2023-03-20T05:25:29;8.00;99.90
28530;DHT22;15737;49.760;6.632;2023-03-20T05:27:55;7.90;99.90
28530;DHT22;15737;49.760;6.632;2023-03-20T05:30:21;7.80;99.90
28530;DHT22;15737;49.760;6.632;2023-03-20T05:32:50;7.70;99.90
28530;DHT22;15737;49.760;6.632;2023-03-20T05:35:16;7.60;99.90
28530;DHT22;15737;49.760;6.632;2023-03-20T05:37:42;7.60;99.90
28530;DHT22;15737;49.760;6.632;2023-03-20T05:40:11;7.60;99.90
28530;DHT22;15737;49.760;6.632;2023-03-20T05:42:37;7.50;99.90
28530;DHT22;15737;49.760;6.632;2023-03-20T05:45:03;7.40;99.90
28530;DHT22;15737;49.760;6.632;2023-03-20T05:47:29;7.40;99.90
28530;DHT22;15737;49.760;6.632;2023-03-20T05:49:55;7.30;99.90
28530;DHT22;15737;49.760;6.632;2023-03-20T05:52:21;7.30;99.90
28530;DHT22;15737;49.760;6.632;2023-03-20T05:54:46;7.20;99.90
28530;DHT22;15737;49.760;6.632;2023-03-20T05:57:12;7.20;99.90
28530;DHT22;15737;49.760;6.632;2023-03-20T05:59:38;7.20;99.90
28530;DHT22;15737;49.760;6.632;2023-03-20T06:02:03;7.20;99.90
28530;DHT22;15737;49.760;6.632;2023-03-20T06:04:29;7.30;99.90
28530;DHT22;15737;49.760;6.632;2023-03-20T06:06:55;7.40;99.90
28530;DHT22;15737;49.760;6.632;2023-03-20T06:09:20;7.60;99.90
28530;DHT22;15737;49.760;6.632;2023-03-20T06:11:46;7.70;99.90
28530;DHT22;15737;49.760;6.632;2023-03-20T06:14:11;7.80;99.90
28530;DHT22;15737;49.760;6.632;2023-03-20T06:16:37;7.80;99.90
28530;DHT22;15737;49.760;6.632;2023-03-20T06:19:02;7.90;99.90
28530;DHT22;15737;49.760;6.632;2023-03-20T06:21:28;8.10;99.90
28530;DHT22;15737;49.760;6.632;2023-03-20T06:23:54;8.40;99.90
28530;DHT22;15737;49.760;6.632;2023-03-20T06:26:20;8.70;99.90
28530;DHT22;15737;49.760;6.632;2023-03-20T06:28:45;10.00;99.90
28530;DHT22;15737;49.760;6.632;2023-03-20T06:31:11;10.90;99.90
28530;DHT22;15737;49.760;6.632;2023-03-20T06:33:37;10.80;99.90
28530;DHT22;15737;49.760;6.632;2023-03-20T06:36:04;10.10;99.90
28530;DHT22;15737;49.760;6.632;2023-03-20T06:38:29;9.50;99.90
28530;DHT22;15737;49.760;6.632;2023-03-20T06:40:55;9.00;99.90
28530;DHT22;15737;49.760;6.632;2023-03-20T06:43:20;8.70;99.90
28530;DHT22;15737;49.760;6.632;2023-03-20T06:45:46;8.40;99.90
28530;DHT22;15737;49.760;6.632;2023-03-20T06:48:12;8.30;99.90
28530;DHT22;15737;49.760;6.632;2023-03-20T06:50:41;8.30;99.90
28530;DHT22;15737;49.760;6.632;2023-03-20T06:53:06;8.40;99.90
28530;DHT22;15737;49.760;6.632;2023-03-20T06:55:32;8.50;99.90
28530;DHT22;15737;49.760;6.632;2023-03-20T06:57:57;8.60;99.90
28530;DHT22;15737;49.760;6.632;2023-03-20T07:00:23;8.90;99.90
28530;DHT22;15737;49.760;6.632;2023-03-20T07:02:49;10.30;99.90
28530;DHT22;15737;49.760;6.632;2023-03-20T07:05:14;12.00;99.90
28530;DHT22;15737;49.760;6.632;2023-03-20T07:07:40;13.40;99.90
28530;DHT22;15737;49.760;6.632;2023-03-20T07:10:06;14.80;99.90
28530;DHT22;15737;49.760;6.632;2023-03-20T07:12:34;14.90;99.90
28530;DHT22;15737;49.760;6.632;2023-03-20T07:14:59;14.60;99.90
28530;DHT22;15737;49.760;6.632;2023-03-20T07:17:25;14.40;99.90
28530;DHT22;15737;49.760;6.632;2023-03-20T07:19:50;14.00;99.90
28530;DHT22;15737;49.760;6.632;2023-03-20T07:22:22;14.50;99.90
28530;DHT22;15737;49.760;6.632;2023-03-20T07:24:49;15.40;99.90
28530;DHT22;15737;49.760;6.632;2023-03-20T07:27:15;15.60;99.90
28530;DHT22;15737;49.760;6.632;2023-03-20T07:29:40;14.40;99.90
28530;DHT22;15737;49.760;6.632;2023-03-20T07:32:06;12.90;99.90
28530;DHT22;15737;49.760;6.632;2023-03-20T07:34:31;11.90;99.90
28530;DHT22;15737;49.760;6.632;2023-03-20T07:36:57;11.50;99.90
28530;DHT22;15737;49.760;6.632;2023-03-20T07:39:22;11.30;99.90
28530;DHT22;15737;49.760;6.632;2023-03-20T07:41:48;10.80;99.90
28530;DHT22;15737;49.760;6.632;2023-03-20T07:44:13;10.60;99.90
28530;DHT22;15737;49.760;6.632;2023-03-20T07:46:40;10.60;99.90
28530;DHT22;15737;49.760;6.632;2023-03-20T07:49:06;10.60;99.90
28530;DHT22;15737;49.760;6.632;2023-03-20T07:51:32;10.50;99.90
28530;DHT22;15737;49.760;6.632;2023-03-20T07:53:58;10.20;99.90
28530;DHT22;15737;49.760;6.632;2023-03-20T07:56:24;10.00;99.90
28530;DHT22;15737;49.760;6.632;2023-03-20T07:58:49;9.90;99.90
28530;DHT22;15737;49.760;6.632;2023-03-20T08:01:15;9.90;99.90
28530;DHT22;15737;49.760;6.632;2023-03-20T08:03:40;10.00;99.90
28530;DHT22;15737;49.760;6.632;2023-03-20T08:06:06;10.00;99.90
28530;DHT22;15737;49.760;6.632;2023-03-20T08:08:34;9.90;99.90
28530;DHT22;15737;49.760;6.632;2023-03-20T08:11:00;9.70;99.90
28530;DHT22;15737;49.760;6.632;2023-03-20T08:13:26;9.80;99.90
28530;DHT22;15737;49.760;6.632;2023-03-20T08:15:51;10.30;99.90
28530;DHT22;15737;49.760;6.632;2023-03-20T08:18:17;12.70;99.90
28530;DHT22;15737;49.760;6.632;2023-03-20T08:20:44;14.90;99.90
28530;DHT22;15737;49.760;6.632;2023-03-20T08:23:10;15.90;99.90
28530;DHT22;15737;49.760;6.632;2023-03-20T08:25:36;16.20;99.90
28530;DHT22;15737;49.760;6.632;2023-03-20T08:28:02;16.20;99.90
28530;DHT22;15737;49.760;6.632;2023-03-20T08:30:28;15.50;99.90
28530;DHT22;15737;49.760;6.632;2023-03-20T08:32:54;14.80;99.90
28530;DHT22;15737;49.760;6.632;2023-03-20T08:35:20;13.90;99.90
28530;DHT22;15737;49.760;6.632;2023-03-20T08:37:45;13.40;99.90
28530;DHT22;15737;49.760;6.632;2023-03-20T08:40:11;14.00;99.90
28530;DHT22;15737;49.760;6.632;2023-03-20T08:42:37;14.80;99.90
28530;DHT22;15737;49.760;6.632;2023-03-20T08:45:03;14.60;99.90
28530;DHT22;15737;49.760;6.632;2023-03-20T08:47:28;14.40;99.90
28530;DHT22;15737;49.760;6.632;2023-03-20T08:49:54;13.90;99.90
28530;DHT22;15737;49.760;6.632;2023-03-20T08:52:20;13.80;99.90
28530;DHT22;15737;49.760;6.632;2023-03-20T08:54:45;13.70;99.90
28530;DHT22;15737;49.760;6.632;2023-03-20T08:57:11;13.30;99.90
28530;DHT22;15737;49.760;6.632;2023-03-20T08:59:37;13.30;99.90
28530;DHT22;15737;49.760;6.632;2023-03-20T09:02:02;13.10;99.90
28530;DHT22;15737;49.760;6.632;2023-03-20T09:04:28;13.10;99.90
28530;DHT22;15737;49.760;6.632;2023-03-20T09:06:54;13.20;99.90
28530;DHT22;15737;49.760;6.632;2023-03-20T09:09:20;13.10;99.90
28530;DHT22;15737;49.760;6.632;2023-03-20T09:11:51;12.70;99.90
28530;DHT22;15737;49.760;6.632;2023-03-20T09:14:16;11.90;99.90
28530;DHT22;15737;49.760;6.632;2023-03-20T09:16:42;11.20;99.90
28530;DHT22;15737;49.760;6.632;2023-03-20T09:19:08;10.70;99.90
28530;DHT22;15737;49.760;6.632;2023-03-20T09:21:33;10.30;99.90
28530;DHT22;15737;49.760;6.632;2023-03-20T09:23:59;10.10;99.90
28530;DHT22;15737;49.760;6.632;2023-03-20T09:26:24;9.90;99.90
28530;DHT22;15737;49.760;6.632;2023-03-20T09:28:50;9.90;99.90
28530;DHT22;15737;49.760;6.632;2023-03-20T09:31:18;10.00;99.90
28530;DHT22;15737;49.760;6.632;2023-03-20T09:33:43;10.10;99.90
28530;DHT22;15737;49.760;6.632;2023-03-20T09:36:09;10.60;99.90
28530;DHT22;15737;49.760;6.632;2023-03-20T09:38:36;11.20;99.90
28530;DHT22;15737;49.760;6.632;2023-03-20T09:41:03;11.80;99.90
28530;DHT22;15737;49.760;6.632;2023-03-20T09:43:57;11.80;99.90
28530;DHT22;15737;49.760;6.632;2023-03-20T09:46:40;11.40;99.90
28530;DHT22;15737;49.760;6.632;2023-03-20T09:49:21;11.20;99.90
28530;DHT22;15737;49.760;6.632;2023-03-20T09:51:56;11.10;99.90
28530;DHT22;15737;49.760;6.632;2023-03-20T09:54:35;11.00;99.90
28530;DHT22;15737;49.760;6.632;2023-03-20T09:57:02;11.10;99.90
28530;DHT22;15737;49.760;6.632;2023-03-20T09:59:29;11.10;99.90
28530;DHT22;15737;49.760;6.632;2023-03-20T10:02:06;11.40;99.90
28530;DHT22;15737;49.760;6.632;2023-03-20T10:04:32;11.90;99.90
28530;DHT22;15737;49.760;6.632;2023-03-20T10:07:00;12.50;99.90
28530;DHT22;15737;49.760;6.632;2023-03-20T10:09:28;12.70;99.90
28530;DHT22;15737;49.760;6.632;2023-03-20T10:12:16;12.90;99.90
28530;DHT22;15737;49.760;6.632;2023-03-20T10:14:58;13.20;99.90
28530;DHT22;15737;49.760;6.632;2023-03-20T10:20:38;13.30;99.90
28530;DHT22;15737;49.760;6.632;2023-03-20T10:26:02;12.90;99.90
28530;DHT22;15737;49.760;6.632;2023-03-20T10:28:55;12.60;99.90
28530;DHT22;15737;49.760;6.632;2023-03-20T10:31:44;12.40;99.90
28530;DHT22;15737;49.760;6.632;2023-03-20T10:34:35;12.30;99.90
28530;DHT22;15737;49.760;6.632;2023-03-20T10:42:38;12.10;99.90
28530;DHT22;15737;49.760;6.632;2023-03-20T10:45:28;11.80;99.90
28530;DHT22;15737;49.760;6.632;2023-03-20T10:47:57;11.80;99.90
28530;DHT22;15737;49.760;6.632;2023-03-20T10:50:31;12.40;99.90
28530;DHT22;15737;49.760;6.632;2023-03-20T10:55:30;12.70;99.90
28530;DHT22;15737;49.760;6.632;2023-03-20T10:58:23;12.90;99.90
28530;DHT22;15737;49.760;6.632;2023-03-20T11:00:53;13.50;99.60
28530;DHT22;15737;49.760;6.632;2023-03-20T11:03:25;13.90;98.60
28530;DHT22;15737;49.760;6.632;2023-03-20T11:06:03;13.70;98.80
28530;DHT22;15737;49.760;6.632;2023-03-20T11:08:34;13.40;99.00
28530;DHT22;15737;49.760;6.632;2023-03-20T11:11:04;13.10;99.00
28530;DHT22;15737;49.760;6.632;2023-03-20T11:13:56;13.10;98.10
28530;DHT22;15737;49.760;6.632;2023-03-20T11:16:30;12.70;99.00
28530;DHT22;15737;49.760;6.632;2023-03-20T11:19:07;12.60;99.10
28530;DHT22;15737;49.760;6.632;2023-03-20T11:21:52;12.40;98.50
28530;DHT22;15737;49.760;6.632;2023-03-20T11:24:25;12.10;98.80
28530;DHT22;15737;49.760;6.632;2023-03-20T11:26:51;11.70;99.30
28530;DHT22;15737;49.760;6.632;2023-03-20T11:29:36;11.80;99.80
28530;DHT22;15737;49.760;6.632;2023-03-20T11:32:27;12.10;99.40
28530;DHT22;15737;49.760;6.632;2023-03-20T11:34:54;12.30;99.60
28530;DHT22;15737;49.760;6.632;2023-03-20T11:37:28;12.70;99.20
28530;DHT22;15737;49.760;6.632;2023-03-20T11:40:13;13.00;98.00
28530;DHT22;15737;49.760;6.632;2023-03-20T11:42:51;12.90;98.40
28530;DHT22;15737;49.760;6.632;2023-03-20T11:45:17;12.90;97.30
28530;DHT22;15737;49.760;6.632;2023-03-20T11:47:49;12.80;96.40
28530;DHT22;15737;49.760;6.632;2023-03-20T11:50:36;12.60;96.50
28530;DHT22;15737;49.760;6.632;2023-03-20T11:53:26;12.60;95.80
28530;DHT22;15737;49.760;6.632;2023-03-20T11:58:30;12.10;95.40
28530;DHT22;15737;49.760;6.632;2023-03-20T12:00:56;12.00;95.70
28530;DHT22;15737;49.760;6.632;2023-03-20T12:03:42;12.10;95.90
28530;DHT22;15737;49.760;6.632;2023-03-20T12:06:15;12.50;96.00
28530;DHT22;15737;49.760;6.632;2023-03-20T12:08:46;12.50;95.20
28530;DHT22;15737;49.760;6.632;2023-03-20T12:11:42;12.10;95.30
28530;DHT22;15737;49.760;6.632;2023-03-20T12:14:35;11.90;95.50
28530;DHT22;15737;49.760;6.632;2023-03-20T12:17:26;11.60;95.90
28530;DHT22;15737;49.760;6.632;2023-03-20T12:19:57;11.50;97.00
28530;DHT22;15737;49.760;6.632;2023-03-20T12:22:30;11.60;96.90
28530;DHT22;15737;49.760;6.632;2023-03-20T12:25:08;11.90;96.90
28530;DHT22;15737;49.760;6.632;2023-03-20T12:27:45;12.10;96.90
28530;DHT22;15737;49.760;6.632;2023-03-20T12:30:21;11.90;96.60
28530;DHT22;15737;49.760;6.632;2023-03-20T12:33:03;11.40;97.10
28530;DHT22;15737;49.760;6.632;2023-03-20T12:35:34;11.40;97.60
28530;DHT22;15737;49.760;6.632;2023-03-20T12:38:01;11.40;97.60
28530;DHT22;15737;49.760;6.632;2023-03-20T12:40:48;11.20;97.90
28530;DHT22;15737;49.760;6.632;2023-03-20T12:43:29;11.20;98.30
28530;DHT22;15737;49.760;6.632;2023-03-20T12:46:24;11.60;98.30
28530;DHT22;15737;49.760;6.632;2023-03-20T12:48:58;11.80;97.90
28530;DHT22;15737;49.760;6.632;2023-03-20T12:51:50;11.70;98.20
28530;DHT22;15737;49.760;6.632;2023-03-20T12:54:41;11.80;98.50
28530;DHT22;15737;49.760;6.632;2023-03-20T12:57:23;12.10;98.10
28530;DHT22;15737;49.760;6.632;2023-03-20T13:00:10;11.90;97.40
28530;DHT22;15737;49.760;6.632;2023-03-20T13:03:05;11.80;98.20
28530;DHT22;15737;49.760;6.632;2023-03-20T13:05:47;12.10;98.30
28530;DHT22;15737;49.760;6.632;2023-03-20T13:08:34;12.50;97.00
28530;DHT22;15737;49.760;6.632;2023-03-20T13:11:17;12.30;96.70
28530;DHT22;15737;49.760;6.632;2023-03-20T13:13:53;12.00;97.70
28530;DHT22;15737;49.760;6.632;2023-03-20T13:19:32;12.40;97.50
28530;DHT22;15737;49.760;6.632;2023-03-20T13:22:21;12.80;97.50
28530;DHT22;15737;49.760;6.632;2023-03-20T13:24:53;13.20;96.90
28530;DHT22;15737;49.760;6.632;2023-03-20T13:38:53;13.60;95.30
28530;DHT22;15737;49.760;6.632;2023-03-20T13:41:23;13.50;95.30
28530;DHT22;15737;49.760;6.632;2023-03-20T13:43:52;13.40;95.40
28530;DHT22;15737;49.760;6.632;2023-03-20T13:46:28;13.60;95.90
28530;DHT22;15737;49.760;6.632;2023-03-20T13:49:07;14.10;95.00
28530;DHT22;15737;49.760;6.632;2023-03-20T13:59:53;16.80;91.80
28530;DHT22;15737;49.760;6.632;2023-03-20T14:02:26;16.90;92.20
28530;DHT22;15737;49.760;6.632;2023-03-20T14:05:20;17.00;89.90
28530;DHT22;15737;49.760;6.632;2023-03-20T14:07:48;15.90;89.30
28530;DHT22;15737;49.760;6.632;2023-03-20T14:13:31;14.80;91.10
28530;DHT22;15737;49.760;6.632;2023-03-20T14:15:55;14.30;91.60
28530;DHT22;15737;49.760;6.632;2023-03-20T14:18:23;13.70;92.40
28530;DHT22;15737;49.760;6.632;2023-03-20T14:20:53;13.20;93.10
28530;DHT22;15737;49.760;6.632;2023-03-20T14:23:29;12.90;93.20
28530;DHT22;15737;49.760;6.632;2023-03-20T14:25:56;13.00;94.10
28530;DHT22;15737;49.760;6.632;2023-03-20T14:28:26;13.50;93.90
28530;DHT22;15737;49.760;6.632;2023-03-20T14:36:59;13.50;93.70
28530;DHT22;15737;49.760;6.632;2023-03-20T14:39:45;13.60;93.40
28530;DHT22;15737;49.760;6.632;2023-03-20T14:47:50;13.30;93.50
28530;DHT22;15737;49.760;6.632;2023-03-20T14:50:25;13.20;93.70
28530;DHT22;15737;49.760;6.632;2023-03-20T14:55:46;13.60;93.60
28530;DHT22;15737;49.760;6.632;2023-03-20T15:01:25;12.90;94.20
28530;DHT22;15737;49.760;6.632;2023-03-20T15:09:57;12.60;94.80
28530;DHT22;15737;49.760;6.632;2023-03-20T15:12:26;12.20;95.40
28530;DHT22;15737;49.760;6.632;2023-03-20T15:15:00;12.00;95.80
28530;DHT22;15737;49.760;6.632;2023-03-20T15:17:35;12.00;95.90
28530;DHT22;15737;49.760;6.632;2023-03-20T15:20:05;11.90;96.30
28530;DHT22;15737;49.760;6.632;2023-03-20T15:22:31;12.00;96.50
28530;DHT22;15737;49.760;6.632;2023-03-20T15:24:58;12.00;96.40
28530;DHT22;15737;49.760;6.632;2023-03-20T15:27:25;12.10;96.20
28530;DHT22;15737;49.760;6.632;2023-03-20T15:29:55;12.10;95.90
28530;DHT22;15737;49.760;6.632;2023-03-20T15:32:21;12.00;96.20
28530;DHT22;15737;49.760;6.632;2023-03-20T15:34:48;12.10;96.20
28530;DHT22;15737;49.760;6.632;2023-03-20T15:37:18;12.10;96.00
28530;DHT22;15737;49.760;6.632;2023-03-20T15:39:47;12.10;96.00
28530;DHT22;15737;49.760;6.632;2023-03-20T15:42:15;12.00;96.10
28530;DHT22;15737;49.760;6.632;2023-03-20T15:44:43;12.00;96.30
28530;DHT22;15737;49.760;6.632;2023-03-20T15:49:37;11.90;96.50
28530;DHT22;15737;49.760;6.632;2023-03-20T15:52:07;11.80;96.50
28530;DHT22;15737;49.760;6.632;2023-03-20T15:54:37;11.70;96.70
28530;DHT22;15737;49.760;6.632;2023-03-20T15:57:06;11.80;96.90
28530;DHT22;15737;49.760;6.632;2023-03-20T15:59:32;11.80;96.90
28530;DHT22;15737;49.760;6.632;2023-03-20T16:01:59;11.90;96.80
28530;DHT22;15737;49.760;6.632;2023-03-20T16:04:26;11.90;96.90
28530;DHT22;15737;49.760;6.632;2023-03-20T16:06:57;11.90;97.00
28530;DHT22;15737;49.760;6.632;2023-03-20T16:09:23;11.90;96.80
28530;DHT22;15737;49.760;6.632;2023-03-20T16:12:00;11.90;97.10
28530;DHT22;15737;49.760;6.632;2023-03-20T16:14:30;11.90;97.10
28530;DHT22;15737;49.760;6.632;2023-03-20T16:16:57;12.10;97.30
28530;DHT22;15737;49.760;6.632;2023-03-20T16:19:25;12.20;96.90
28530;DHT22;15737;49.760;6.632;2023-03-20T16:25:02;12.10;96.90
28530;DHT22;15737;49.760;6.632;2023-03-20T16:27:31;11.90;96.90
28530;DHT22;15737;49.760;6.632;2023-03-20T16:29:58;11.80;97.10
28530;DHT22;15737;49.760;6.632;2023-03-20T16:34:56;11.80;97.20
28530;DHT22;15737;49.760;6.632;2023-03-20T16:37:31;11.80;97.30
28530;DHT22;15737;49.760;6.632;2023-03-20T16:43:16;11.90;96.90
28530;DHT22;15737;49.760;6.632;2023-03-20T16:45:51;11.90;97.00
28530;DHT22;15737;49.760;6.632;2023-03-20T16:48:32;11.90;97.10
28530;DHT22;15737;49.760;6.632;2023-03-20T16:51:19;11.90;97.10
28530;DHT22;15737;49.760;6.632;2023-03-20T16:53:47;11.80;97.30
28530;DHT22;15737;49.760;6.632;2023-03-20T16:56:21;11.80;97.20
28530;DHT22;15737;49.760;6.632;2023-03-20T16:58:47;11.80;97.40
28530;DHT22;15737;49.760;6.632;2023-03-20T17:01:19;11.80;97.40
28530;DHT22;15737;49.760;6.632;2023-03-20T17:03:52;11.70;97.60
28530;DHT22;15737;49.760;6.632;2023-03-20T17:08:53;11.40;97.90
28530;DHT22;15737;49.760;6.632;2023-03-20T17:11:34;11.30;98.00
28530;DHT22;15737;49.760;6.632;2023-03-20T17:14:00;11.10;98.40
28530;DHT22;15737;49.760;6.632;2023-03-20T17:16:27;11.00;98.60
28530;DHT22;15737;49.760;6.632;2023-03-20T17:19:05;10.90;98.90
28530;DHT22;15737;49.760;6.632;2023-03-20T17:21:32;10.90;99.10
28530;DHT22;15737;49.760;6.632;2023-03-20T17:23:57;10.90;99.30
28530;DHT22;15737;49.760;6.632;2023-03-20T17:26:23;10.80;99.50
28530;DHT22;15737;49.760;6.632;2023-03-20T17:28:49;10.80;99.70
28530;DHT22;15737;49.760;6.632;2023-03-20T17:31:16;10.70;99.90
28530;DHT22;15737;49.760;6.632;2023-03-20T17:33:42;10.50;99.90
28530;DHT22;15737;49.760;6.632;2023-03-20T17:36:34;10.40;99.90
28530;DHT22;15737;49.760;6.632;2023-03-20T17:39:01;10.30;99.90
28530;DHT22;15737;49.760;6.632;2023-03-20T17:41:27;10.20;99.90
28530;DHT22;15737;49.760;6.632;2023-03-20T17:43:53;10.20;99.90
28530;DHT22;15737;49.760;6.632;2023-03-20T17:46:28;10.20;99.90
28530;DHT22;15737;49.760;6.632;2023-03-20T17:49:00;10.20;99.90
28530;DHT22;15737;49.760;6.632;2023-03-20T17:51:26;10.10;99.90
28530;DHT22;15737;49.760;6.632;2023-03-20T17:53:52;10.10;99.90
28530;DHT22;15737;49.760;6.632;2023-03-20T17:56:20;10.10;99.90
28530;DHT22;15737;49.760;6.632;2023-03-20T17:58:46;10.00;99.90
28530;DHT22;15737;49.760;6.632;2023-03-20T18:01:13;10.00;99.90
28530;DHT22;15737;49.760;6.632;2023-03-20T18:03:38;10.00;99.90
28530;DHT22;15737;49.760;6.632;2023-03-20T18:06:05;9.90;99.90